sensor_id;sensor_type;location;lat;lon;timestamp;pressure;altitude;pressure_sealevel;temperature;humidity
41886;BME280;27567;43.084;25.616;2023-07-29T00:02:05;98006.41;;;16.06;100.00
41886;BME280;27567;43.084;25.616;2023-07-29T00:04:49;98001.66;;;15.97;100.00
41886;BME280;27567;43.084;25.616;2023-07-29T00:07:33;97999.66;;;15.92;100.00
41886;BME280;27567;43.084;25.616;2023-07-29T00:10:18;97996.97;;;15.92;100.00
41886;BME280;27567;43.084;25.616;2023-07-29T00:13:03;98003.44;;;15.91;100.00
41886;BME280;27567;43.084;25.616;2023-07-29T00:15:47;97995.41;;;15.96;100.00
41886;BME280;27567;43.084;25.616;2023-07-29T00:18:31;97994.69;;;16.01;100.00
41886;BME280;27567;43.084;25.616;2023-07-29T00:21:16;97990.97;;;15.90;100.00
41886;BME280;27567;43.084;25.616;2023-07-29T00:24:01;97980.75;;;15.92;100.00
41886;BME280;27567;43.084;25.616;2023-07-29T00:26:45;97983.13;;;15.88;100.00
41886;BME280;27567;43.084;25.616;2023-07-29T00:29:45;97976.53;;;15.84;100.00
41886;BME280;27567;43.084;25.616;2023-07-29T00:32:41;97982.44;;;15.81;100.00
41886;BME280;27567;43.084;25.616;2023-07-29T00:35:25;97978.56;;;15.77;100.00
41886;BME280;27567;43.084;25.616;2023-07-29T00:38:10;97971.84;;;15.62;100.00
41886;BME280;27567;43.084;25.616;2023-07-29T00:40:57;97975.66;;;15.50;100.00
41886;BME280;27567;43.084;25.616;2023-07-29T00:43:41;97971.69;;;15.52;100.00
41886;BME280;27567;43.084;25.616;2023-07-29T00:46:27;97964.88;;;15.50;100.00
41886;BME280;27567;43.084;25.616;2023-07-29T00:49:12;97963.63;;;15.40;100.00
41886;BME280;27567;43.084;25.616;2023-07-29T00:51:57;97959.78;;;15.36;100.00
41886;BME280;27567;43.084;25.616;2023-07-29T00:54:42;97957.88;;;15.37;100.00
41886;BME280;27567;43.084;25.616;2023-07-29T00:57:26;97963.44;;;15.30;100.00
41886;BME280;27567;43.084;25.616;2023-07-29T01:00:12;97967.25;;;15.17;100.00
41886;BME280;27567;43.084;25.616;2023-07-29T01:02:56;97968.03;;;15.17;100.00
41886;BME280;27567;43.084;25.616;2023-07-29T01:14:46;97974.72;;;15.27;100.00
41886;BME280;27567;43.084;25.616;2023-07-29T01:17:54;97977.41;;;15.27;100.00
41886;BME280;27567;43.084;25.616;2023-07-29T01:20:40;97979.16;;;15.33;100.00
41886;BME280;27567;43.084;25.616;2023-07-29T01:23:32;97980.22;;;15.32;100.00
41886;BME280;27567;43.084;25.616;2023-07-29T01:26:17;97978.16;;;15.22;100.00
41886;BME280;27567;43.084;25.616;2023-07-29T01:29:01;97974.03;;;15.20;100.00
41886;BME280;27567;43.084;25.616;2023-07-29T01:31:46;97976.28;;;15.11;100.00
41886;BME280;27567;43.084;25.616;2023-07-29T01:34:44;97988.50;;;15.13;100.00
41886;BME280;27567;43.084;25.616;2023-07-29T01:37:33;97985.19;;;15.23;100.00
41886;BME280;27567;43.084;25.616;2023-07-29T01:40:18;97999.59;;;15.29;100.00
41886;BME280;27567;43.084;25.616;2023-07-29T01:43:03;98001.41;;;15.23;100.00
41886;BME280;27567;43.084;25.616;2023-07-29T01:45:48;98000.06;;;15.26;100.00
41886;BME280;27567;43.084;25.616;2023-07-29T01:48:32;98000.94;;;15.14;100.00
41886;BME280;27567;43.084;25.616;2023-07-29T01:51:16;98002.97;;;15.07;100.00
41886;BME280;27567;43.084;25.616;2023-07-29T01:53:59;98002.13;;;15.07;100.00
41886;BME280;27567;43.084;25.616;2023-07-29T01:56:43;98003.09;;;15.00;100.00
41886;BME280;27567;43.084;25.616;2023-07-29T01:59:27;98006.97;;;15.05;100.00
41886;BME280;27567;43.084;25.616;2023-07-29T02:02:12;98000.47;;;15.06;100.00
41886;BME280;27567;43.084;25.616;2023-07-29T02:04:56;97998.88;;;15.05;100.00
41886;BME280;27567;43.084;25.616;2023-07-29T02:07:40;97999.34;;;15.01;100.00
41886;BME280;27567;43.084;25.616;2023-07-29T02:10:24;97999.47;;;14.95;100.00
41886;BME280;27567;43.084;25.616;2023-07-29T02:13:09;97997.16;;;14.86;100.00
41886;BME280;27567;43.084;25.616;2023-07-29T02:15:53;98005.91;;;14.94;100.00
41886;BME280;27567;43.084;25.616;2023-07-29T02:18:37;98002.44;;;14.81;100.00
41886;BME280;27567;43.084;25.616;2023-07-29T02:21:21;98005.25;;;14.75;100.00
41886;BME280;27567;43.084;25.616;2023-07-29T02:24:04;98016.97;;;14.80;100.00
41886;BME280;27567;43.084;25.616;2023-07-29T02:26:48;97999.84;;;14.86;100.00
41886;BME280;27567;43.084;25.616;2023-07-29T02:29:32;97999.72;;;14.93;100.00
41886;BME280;27567;43.084;25.616;2023-07-29T02:32:16;98007.56;;;14.95;100.00
41886;BME280;27567;43.084;25.616;2023-07-29T02:35:00;98011.56;;;14.92;100.00
41886;BME280;27567;43.084;25.616;2023-07-29T02:37:45;98025.66;;;14.82;100.00
41886;BME280;27567;43.084;25.616;2023-07-29T02:40:29;98021.19;;;14.76;100.00
41886;BME280;27567;43.084;25.616;2023-07-29T02:43:13;98020.63;;;14.74;100.00
41886;BME280;27567;43.084;25.616;2023-07-29T02:45:57;98025.22;;;14.73;100.00
41886;BME280;27567;43.084;25.616;2023-07-29T02:48:42;98020.00;;;14.60;100.00
41886;BME280;27567;43.084;25.616;2023-07-29T02:51:26;98023.75;;;14.47;100.00
41886;BME280;27567;43.084;25.616;2023-07-29T02:54:10;98025.41;;;14.48;100.00
41886;BME280;27567;43.084;25.616;2023-07-29T02:56:54;98028.22;;;14.53;100.00
41886;BME280;27567;43.084;25.616;2023-07-29T02:59:38;98030.22;;;14.58;100.00
41886;BME280;27567;43.084;25.616;2023-07-29T03:02:22;98023.66;;;14.66;100.00
41886;BME280;27567;43.084;25.616;2023-07-29T03:05:06;98034.22;;;14.67;100.00
41886;BME280;27567;43.084;25.616;2023-07-29T03:07:50;98032.13;;;14.69;100.00
41886;BME280;27567;43.084;25.616;2023-07-29T03:10:35;98025.53;;;14.53;100.00
41886;BME280;27567;43.084;25.616;2023-07-29T03:13:20;98035.72;;;14.51;100.00
41886;BME280;27567;43.084;25.616;2023-07-29T03:16:12;98028.22;;;14.41;100.00
41886;BME280;27567;43.084;25.616;2023-07-29T03:18:57;98025.66;;;14.35;100.00
41886;BME280;27567;43.084;25.616;2023-07-29T03:21:42;98030.22;;;14.34;100.00
41886;BME280;27567;43.084;25.616;2023-07-29T03:24:26;98032.44;;;14.25;100.00
41886;BME280;27567;43.084;25.616;2023-07-29T03:27:11;98025.06;;;14.33;100.00
41886;BME280;27567;43.084;25.616;2023-07-29T03:29:55;98027.03;;;14.37;100.00
41886;BME280;27567;43.084;25.616;2023-07-29T03:32:43;98024.34;;;14.37;100.00
41886;BME280;27567;43.084;25.616;2023-07-29T03:35:29;98030.22;;;14.34;100.00
41886;BME280;27567;43.084;25.616;2023-07-29T03:38:13;98035.84;;;14.21;100.00
41886;BME280;27567;43.084;25.616;2023-07-29T03:40:57;98031.59;;;14.13;100.00
41886;BME280;27567;43.084;25.616;2023-07-29T03:43:42;98030.19;;;14.22;100.00
41886;BME280;27567;43.084;25.616;2023-07-29T03:46:25;98034.19;;;14.20;100.00
41886;BME280;27567;43.084;25.616;2023-07-29T03:49:09;98030.09;;;14.29;100.00
41886;BME280;27567;43.084;25.616;2023-07-29T03:51:53;98042.88;;;14.22;100.00
41886;BME280;27567;43.084;25.616;2023-07-29T03:54:37;98032.56;;;14.31;100.00
41886;BME280;27567;43.084;25.616;2023-07-29T03:57:21;98047.94;;;14.42;100.00
41886;BME280;27567;43.084;25.616;2023-07-29T04:00:05;98040.44;;;14.68;100.00
41886;BME280;27567;43.084;25.616;2023-07-29T04:02:49;98032.72;;;14.71;100.00
41886;BME280;27567;43.084;25.616;2023-07-29T04:05:34;98032.84;;;14.77;100.00
41886;BME280;27567;43.084;25.616;2023-07-29T04:08:18;98034.56;;;14.83;100.00
41886;BME280;27567;43.084;25.616;2023-07-29T04:11:03;98039.13;;;14.94;100.00
41886;BME280;27567;43.084;25.616;2023-07-29T04:13:47;98036.09;;;15.02;100.00
41886;BME280;27567;43.084;25.616;2023-07-29T04:16:31;98045.56;;;15.05;100.00
41886;BME280;27567;43.084;25.616;2023-07-29T04:19:15;98037.59;;;15.10;100.00
41886;BME280;27567;43.084;25.616;2023-07-29T04:21:59;98048.66;;;15.38;100.00
41886;BME280;27567;43.084;25.616;2023-07-29T04:24:43;98040.81;;;15.36;100.00
41886;BME280;27567;43.084;25.616;2023-07-29T04:27:35;98049.44;;;15.50;100.00
41886;BME280;27567;43.084;25.616;2023-07-29T04:30:19;98048.47;;;15.56;100.00
41886;BME280;27567;43.084;25.616;2023-07-29T04:33:03;98046.19;;;15.65;100.00
41886;BME280;27567;43.084;25.616;2023-07-29T04:35:47;98050.88;;;15.70;100.00
41886;BME280;27567;43.084;25.616;2023-07-29T04:38:32;98054.91;;;15.84;100.00
41886;BME280;27567;43.084;25.616;2023-07-29T04:41:17;98062.19;;;15.96;100.00
41886;BME280;27567;43.084;25.616;2023-07-29T04:44:01;98057.44;;;16.03;100.00
41886;BME280;27567;43.084;25.616;2023-07-29T04:46:45;98049.03;;;16.16;100.00
41886;BME280;27567;43.084;25.616;2023-07-29T04:49:30;98061.53;;;16.05;100.00
41886;BME280;27567;43.084;25.616;2023-07-29T04:52:14;98061.97;;;16.31;100.00
41886;BME280;27567;43.084;25.616;2023-07-29T04:54:58;98058.03;;;16.39;100.00
41886;BME280;27567;43.084;25.616;2023-07-29T04:57:42;98062.03;;;16.53;100.00
41886;BME280;27567;43.084;25.616;2023-07-29T05:00:26;98060.63;;;16.68;100.00
41886;BME280;27567;43.084;25.616;2023-07-29T05:03:10;98063.94;;;16.70;100.00
41886;BME280;27567;43.084;25.616;2023-07-29T05:05:56;98067.34;;;16.82;100.00
41886;BME280;27567;43.084;25.616;2023-07-29T05:08:40;98075.63;;;16.93;100.00
41886;BME280;27567;43.084;25.616;2023-07-29T05:11:25;98069.94;;;17.11;100.00
41886;BME280;27567;43.084;25.616;2023-07-29T05:14:09;98075.72;;;17.20;100.00
41886;BME280;27567;43.084;25.616;2023-07-29T05:16:53;98078.19;;;17.44;100.00
41886;BME280;27567;43.084;25.616;2023-07-29T05:19:37;98073.25;;;17.63;100.00
41886;BME280;27567;43.084;25.616;2023-07-29T05:22:21;98084.09;;;17.91;100.00
41886;BME280;27567;43.084;25.616;2023-07-29T05:25:05;98084.28;;;18.06;100.00
41886;BME280;27567;43.084;25.616;2023-07-29T05:27:50;98083.09;;;18.24;100.00
41886;BME280;27567;43.084;25.616;2023-07-29T05:30:34;98084.09;;;18.45;100.00
41886;BME280;27567;43.084;25.616;2023-07-29T05:33:21;98085.22;;;18.55;100.00
41886;BME280;27567;43.084;25.616;2023-07-29T05:36:05;98079.13;;;18.75;100.00
41886;BME280;27567;43.084;25.616;2023-07-29T05:38:49;98088.84;;;19.03;100.00
41886;BME280;27567;43.084;25.616;2023-07-29T05:41:34;98095.78;;;19.32;100.00
41886;BME280;27567;43.084;25.616;2023-07-29T05:44:18;98095.81;;;19.37;100.00
41886;BME280;27567;43.084;25.616;2023-07-29T05:47:01;98092.81;;;19.38;100.00
41886;BME280;27567;43.084;25.616;2023-07-29T05:49:46;98110.53;;;19.51;100.00
41886;BME280;27567;43.084;25.616;2023-07-29T05:52:31;98109.50;;;19.58;100.00
41886;BME280;27567;43.084;25.616;2023-07-29T05:55:15;98116.66;;;19.85;100.00
41886;BME280;27567;43.084;25.616;2023-07-29T05:57:59;98106.66;;;19.95;100.00
41886;BME280;27567;43.084;25.616;2023-07-29T06:00:43;98103.94;;;20.11;100.00
41886;BME280;27567;43.084;25.616;2023-07-29T06:03:27;98103.13;;;20.16;100.00
41886;BME280;27567;43.084;25.616;2023-07-29T06:06:11;98099.59;;;20.36;100.00
41886;BME280;27567;43.084;25.616;2023-07-29T06:08:56;98089.25;;;20.64;100.00
41886;BME280;27567;43.084;25.616;2023-07-29T06:11:40;98094.72;;;20.84;100.00
41886;BME280;27567;43.084;25.616;2023-07-29T06:14:24;98093.03;;;21.04;100.00
41886;BME280;27567;43.084;25.616;2023-07-29T06:17:08;98091.88;;;21.26;100.00
41886;BME280;27567;43.084;25.616;2023-07-29T06:19:55;98090.44;;;21.49;100.00
41886;BME280;27567;43.084;25.616;2023-07-29T06:22:39;98088.72;;;21.74;100.00
41886;BME280;27567;43.084;25.616;2023-07-29T06:25:23;98089.44;;;21.90;100.00
41886;BME280;27567;43.084;25.616;2023-07-29T06:28:09;98074.41;;;21.92;100.00
41886;BME280;27567;43.084;25.616;2023-07-29T06:30:53;98082.69;;;22.17;100.00
41886;BME280;27567;43.084;25.616;2023-07-29T06:33:37;98084.22;;;22.33;100.00
41886;BME280;27567;43.084;25.616;2023-07-29T06:36:22;98067.41;;;22.56;100.00
41886;BME280;27567;43.084;25.616;2023-07-29T06:39:06;98072.03;;;22.85;100.00
41886;BME280;27567;43.084;25.616;2023-07-29T06:41:51;98061.34;;;22.88;100.00
41886;BME280;27567;43.084;25.616;2023-07-29T06:44:43;98073.44;;;23.06;100.00
41886;BME280;27567;43.084;25.616;2023-07-29T06:47:30;98064.91;;;23.13;100.00
41886;BME280;27567;43.084;25.616;2023-07-29T06:52:52;98070.28;;;23.67;100.00
41886;BME280;27567;43.084;25.616;2023-07-29T06:55:37;98078.09;;;23.98;100.00
41886;BME280;27567;43.084;25.616;2023-07-29T06:58:21;98060.59;;;23.94;100.00
41886;BME280;27567;43.084;25.616;2023-07-29T07:01:06;98073.34;;;24.23;100.00
41886;BME280;27567;43.084;25.616;2023-07-29T07:03:50;98068.59;;;24.28;100.00
41886;BME280;27567;43.084;25.616;2023-07-29T07:06:37;98069.38;;;24.48;100.00
41886;BME280;27567;43.084;25.616;2023-07-29T07:09:22;98063.47;;;24.74;100.00
41886;BME280;27567;43.084;25.616;2023-07-29T07:12:06;98062.81;;;25.10;100.00
41886;BME280;27567;43.084;25.616;2023-07-29T07:14:54;98063.09;;;25.64;100.00
41886;BME280;27567;43.084;25.616;2023-07-29T07:17:38;98069.50;;;25.60;95.69
41886;BME280;27567;43.084;25.616;2023-07-29T07:20:22;98070.66;;;25.45;95.25
41886;BME280;27567;43.084;25.616;2023-07-29T07:23:06;98063.97;;;25.88;85.81
41886;BME280;27567;43.084;25.616;2023-07-29T07:25:54;98071.94;;;26.12;78.55
41886;BME280;27567;43.084;25.616;2023-07-29T07:28:38;98071.94;;;26.12;81.53
41886;BME280;27567;43.084;25.616;2023-07-29T07:31:22;98069.25;;;26.21;72.40
41886;BME280;27567;43.084;25.616;2023-07-29T07:34:06;98068.69;;;26.33;74.06
41886;BME280;27567;43.084;25.616;2023-07-29T07:36:50;98069.88;;;26.40;72.32
41886;BME280;27567;43.084;25.616;2023-07-29T07:39:35;98079.22;;;26.62;71.23
41886;BME280;27567;43.084;25.616;2023-07-29T07:42:19;98072.34;;;26.74;67.72
41886;BME280;27567;43.084;25.616;2023-07-29T07:45:03;98069.47;;;26.79;65.47
41886;BME280;27567;43.084;25.616;2023-07-29T07:47:47;98060.56;;;27.05;65.32
41886;BME280;27567;43.084;25.616;2023-07-29T07:50:33;98067.41;;;26.84;65.32
41886;BME280;27567;43.084;25.616;2023-07-29T07:53:17;98050.50;;;27.00;59.99
41886;BME280;27567;43.084;25.616;2023-07-29T07:56:03;98055.41;;;27.21;59.56
41886;BME280;27567;43.084;25.616;2023-07-29T07:58:47;98044.22;;;27.08;58.02
41886;BME280;27567;43.084;25.616;2023-07-29T08:01:36;98057.94;;;26.68;60.14
41886;BME280;27567;43.084;25.616;2023-07-29T08:04:21;98040.84;;;27.11;58.74
41886;BME280;27567;43.084;25.616;2023-07-29T08:07:05;98045.09;;;27.26;57.43
41886;BME280;27567;43.084;25.616;2023-07-29T08:09:49;98054.03;;;27.41;54.70
41886;BME280;27567;43.084;25.616;2023-07-29T08:12:33;98052.88;;;27.33;54.94
41886;BME280;27567;43.084;25.616;2023-07-29T08:15:17;98040.50;;;27.53;54.49
41886;BME280;27567;43.084;25.616;2023-07-29T08:20:38;98031.47;;;28.14;54.67
41886;BME280;27567;43.084;25.616;2023-07-29T08:26:10;98033.72;;;27.95;58.19
41886;BME280;27567;43.084;25.616;2023-07-29T08:28:55;98034.22;;;27.88;60.88
41886;BME280;27567;43.084;25.616;2023-07-29T08:31:39;98038.09;;;27.78;64.07
41886;BME280;27567;43.084;25.616;2023-07-29T08:34:23;98030.94;;;27.59;65.41
41886;BME280;27567;43.084;25.616;2023-07-29T08:37:08;98022.59;;;27.33;64.25
41886;BME280;27567;43.084;25.616;2023-07-29T08:39:56;98030.22;;;27.36;63.92
41886;BME280;27567;43.084;25.616;2023-07-29T08:42:48;98026.09;;;27.92;64.45
41886;BME280;27567;43.084;25.616;2023-07-29T08:45:37;98016.53;;;27.98;63.42
41886;BME280;27567;43.084;25.616;2023-07-29T08:48:35;98017.19;;;27.86;60.23
41886;BME280;27567;43.084;25.616;2023-07-29T08:51:25;98018.34;;;28.11;57.53
41886;BME280;27567;43.084;25.616;2023-07-29T08:54:12;98019.78;;;28.00;57.22
41886;BME280;27567;43.084;25.616;2023-07-29T08:57:00;98017.19;;;28.21;57.83
41886;BME280;27567;43.084;25.616;2023-07-29T08:59:45;98017.75;;;28.62;57.25
41886;BME280;27567;43.084;25.616;2023-07-29T09:05:08;98009.56;;;28.18;69.78
41886;BME280;27567;43.084;25.616;2023-07-29T09:07:56;98001.78;;;28.11;77.10
41886;BME280;27567;43.084;25.616;2023-07-29T09:10:41;98004.88;;;28.01;73.52
41886;BME280;27567;43.084;25.616;2023-07-29T09:13:29;98002.94;;;27.66;74.67
41886;BME280;27567;43.084;25.616;2023-07-29T09:16:17;98009.34;;;27.44;77.85
41886;BME280;27567;43.084;25.616;2023-07-29T09:19:05;98007.81;;;27.78;76.83
41886;BME280;27567;43.084;25.616;2023-07-29T09:21:50;98014.59;;;27.81;76.36
41886;BME280;27567;43.084;25.616;2023-07-29T09:24:35;98006.00;;;28.09;78.47
41886;BME280;27567;43.084;25.616;2023-07-29T09:27:29;98018.31;;;27.85;77.89
41886;BME280;27567;43.084;25.616;2023-07-29T09:30:19;98009.72;;;27.86;74.11
41886;BME280;27567;43.084;25.616;2023-07-29T09:33:09;97998.41;;;28.14;72.12
41886;BME280;27567;43.084;25.616;2023-07-29T09:35:54;97992.72;;;28.19;70.46
41886;BME280;27567;43.084;25.616;2023-07-29T09:38:38;97990.88;;;28.41;69.86
41886;BME280;27567;43.084;25.616;2023-07-29T09:41:27;98009.66;;;28.48;70.28
41886;BME280;27567;43.084;25.616;2023-07-29T09:44:14;97999.69;;;28.26;74.73
41886;BME280;27567;43.084;25.616;2023-07-29T09:46:58;98005.34;;;28.03;71.68
41886;BME280;27567;43.084;25.616;2023-07-29T09:49:43;97997.44;;;27.75;72.54
41886;BME280;27567;43.084;25.616;2023-07-29T09:52:27;98006.16;;;27.95;72.74
41886;BME280;27567;43.084;25.616;2023-07-29T09:55:22;97993.66;;;28.32;70.38
41886;BME280;27567;43.084;25.616;2023-07-29T09:58:13;98002.50;;;28.56;68.26
41886;BME280;27567;43.084;25.616;2023-07-29T10:01:01;98001.19;;;28.62;66.91
41886;BME280;27567;43.084;25.616;2023-07-29T10:03:49;97991.00;;;28.54;69.34
41886;BME280;27567;43.084;25.616;2023-07-29T10:06:34;97999.44;;;29.05;64.43
41886;BME280;27567;43.084;25.616;2023-07-29T10:09:31;98000.00;;;29.49;62.90
41886;BME280;27567;43.084;25.616;2023-07-29T10:12:16;97992.28;;;29.34;61.93
41886;BME280;27567;43.084;25.616;2023-07-29T10:15:05;97983.03;;;29.38;62.62
41886;BME280;27567;43.084;25.616;2023-07-29T10:17:51;97981.88;;;29.39;63.59
41886;BME280;27567;43.084;25.616;2023-07-29T10:20:41;97974.53;;;30.07;59.76
41886;BME280;27567;43.084;25.616;2023-07-29T10:23:30;97977.66;;;31.92;52.18
41886;BME280;27567;43.084;25.616;2023-07-29T10:26:23;97974.66;;;33.57;46.21
41886;BME280;27567;43.084;25.616;2023-07-29T10:29:12;97968.91;;;35.83;41.54
41886;BME280;27567;43.084;25.616;2023-07-29T10:32:01;97961.56;;;37.40;37.33
41886;BME280;27567;43.084;25.616;2023-07-29T10:34:50;97959.75;;;37.03;37.44
41886;BME280;27567;43.084;25.616;2023-07-29T10:37:35;97963.91;;;38.19;35.26
41886;BME280;27567;43.084;25.616;2023-07-29T10:40:22;97956.47;;;36.45;37.04
41886;BME280;27567;43.084;25.616;2023-07-29T10:43:11;97963.38;;;37.88;35.19
41886;BME280;27567;43.084;25.616;2023-07-29T10:45:56;97959.53;;;39.42;33.12
41886;BME280;27567;43.084;25.616;2023-07-29T10:51:36;97946.28;;;41.95;30.45
41886;BME280;27567;43.084;25.616;2023-07-29T10:54:22;97935.47;;;45.29;26.75
41886;BME280;27567;43.084;25.616;2023-07-29T10:57:06;97937.78;;;45.35;26.53
41886;BME280;27567;43.084;25.616;2023-07-29T10:59:57;97931.72;;;47.80;23.93
41886;BME280;27567;43.084;25.616;2023-07-29T11:02:41;97946.19;;;43.05;26.31
41886;BME280;27567;43.084;25.616;2023-07-29T11:05:49;97931.72;;;42.28;27.20
41886;BME280;27567;43.084;25.616;2023-07-29T11:08:52;97946.81;;;42.92;26.00
41886;BME280;27567;43.084;25.616;2023-07-29T11:11:50;97941.06;;;40.33;28.14
41886;BME280;27567;43.084;25.616;2023-07-29T11:14:36;97934.16;;;39.81;28.90
41886;BME280;27567;43.084;25.616;2023-07-29T11:17:21;97934.72;;;41.20;27.82
41886;BME280;27567;43.084;25.616;2023-07-29T11:20:07;97930.72;;;43.94;25.79
41886;BME280;27567;43.084;25.616;2023-07-29T11:22:56;97930.22;;;43.99;26.11
41886;BME280;27567;43.084;25.616;2023-07-29T11:25:40;97921.31;;;42.52;27.44
41886;BME280;27567;43.084;25.616;2023-07-29T11:28:25;97920.34;;;43.30;26.30
41886;BME280;27567;43.084;25.616;2023-07-29T11:31:10;97905.63;;;41.69;27.33
41886;BME280;27567;43.084;25.616;2023-07-29T11:33:55;97906.84;;;42.26;26.79
41886;BME280;27567;43.084;25.616;2023-07-29T11:36:45;97904.06;;;44.65;24.81
41886;BME280;27567;43.084;25.616;2023-07-29T11:39:30;97898.47;;;45.79;23.84
41886;BME280;27567;43.084;25.616;2023-07-29T11:42:15;97903.47;;;44.04;24.84
41886;BME280;27567;43.084;25.616;2023-07-29T11:45:06;97907.66;;;44.16;24.86
41886;BME280;27567;43.084;25.616;2023-07-29T11:47:51;97911.31;;;44.16;25.31
41886;BME280;27567;43.084;25.616;2023-07-29T11:50:39;97897.31;;;44.92;24.37
41886;BME280;27567;43.084;25.616;2023-07-29T11:53:29;97891.81;;;47.75;22.13
41886;BME280;27567;43.084;25.616;2023-07-29T11:56:17;97905.25;;;46.59;22.78
41886;BME280;27567;43.084;25.616;2023-07-29T11:59:02;97896.88;;;45.23;23.70
41886;BME280;27567;43.084;25.616;2023-07-29T12:01:52;97894.91;;;45.36;23.55
41886;BME280;27567;43.084;25.616;2023-07-29T12:04:41;97892.06;;;44.27;23.72
41886;BME280;27567;43.084;25.616;2023-07-29T12:07:32;97897.09;;;44.20;23.83
41886;BME280;27567;43.084;25.616;2023-07-29T12:10:20;97889.56;;;45.25;23.58
41886;BME280;27567;43.084;25.616;2023-07-29T12:13:08;97888.56;;;46.13;22.86
41886;BME280;27567;43.084;25.616;2023-07-29T12:16:01;97894.97;;;47.77;21.91
41886;BME280;27567;43.084;25.616;2023-07-29T12:18:49;97888.34;;;48.11;21.55
41886;BME280;27567;43.084;25.616;2023-07-29T12:21:35;97891.47;;;47.19;22.00
41886;BME280;27567;43.084;25.616;2023-07-29T12:24:22;97879.84;;;46.07;22.19
41886;BME280;27567;43.084;25.616;2023-07-29T12:27:11;97885.81;;;42.82;24.54
41886;BME280;27567;43.084;25.616;2023-07-29T12:30:01;97888.97;;;40.78;25.99
41886;BME280;27567;43.084;25.616;2023-07-29T12:32:48;97884.44;;;39.82;26.98
41886;BME280;27567;43.084;25.616;2023-07-29T12:35:39;97882.03;;;43.33;23.82
41886;BME280;27567;43.084;25.616;2023-07-29T12:38:26;97877.47;;;45.08;22.55
41886;BME280;27567;43.084;25.616;2023-07-29T12:41:11;97866.63;;;45.49;22.54
41886;BME280;27567;43.084;25.616;2023-07-29T12:43:55;97869.13;;;45.60;21.80
41886;BME280;27567;43.084;25.616;2023-07-29T12:46:43;97870.47;;;48.61;20.40
41886;BME280;27567;43.084;25.616;2023-07-29T12:49:27;97881.03;;;48.42;20.53
41886;BME280;27567;43.084;25.616;2023-07-29T12:52:13;97869.72;;;48.01;20.70
41886;BME280;27567;43.084;25.616;2023-07-29T12:54:57;97875.34;;;48.33;20.68
41886;BME280;27567;43.084;25.616;2023-07-29T12:57:42;97868.75;;;45.32;21.33
41886;BME280;27567;43.084;25.616;2023-07-29T13:00:27;97863.47;;;44.25;22.26
41886;BME280;27567;43.084;25.616;2023-07-29T13:03:12;97865.16;;;46.35;21.51
41886;BME280;27567;43.084;25.616;2023-07-29T13:05:56;97868.56;;;46.43;21.42
41886;BME280;27567;43.084;25.616;2023-07-29T13:08:41;97862.50;;;46.66;20.44
41886;BME280;27567;43.084;25.616;2023-07-29T13:11:26;97867.53;;;45.46;21.67
41886;BME280;27567;43.084;25.616;2023-07-29T13:14:10;97860.22;;;45.19;21.26
41886;BME280;27567;43.084;25.616;2023-07-29T13:16:55;97872.75;;;45.18;21.77
41886;BME280;27567;43.084;25.616;2023-07-29T13:19:39;97862.84;;;44.18;21.91
41886;BME280;27567;43.084;25.616;2023-07-29T13:22:25;97870.44;;;42.87;22.98
41886;BME280;27567;43.084;25.616;2023-07-29T13:25:10;97859.75;;;44.45;22.10
41886;BME280;27567;43.084;25.616;2023-07-29T13:27:55;97862.03;;;45.81;21.21
41886;BME280;27567;43.084;25.616;2023-07-29T13:30:40;97855.94;;;44.35;22.12
41886;BME280;27567;43.084;25.616;2023-07-29T13:33:24;97856.97;;;43.92;21.84
41886;BME280;27567;43.084;25.616;2023-07-29T13:36:10;97852.72;;;43.06;22.83
41886;BME280;27567;43.084;25.616;2023-07-29T13:38:54;97852.16;;;46.73;20.51
41886;BME280;27567;43.084;25.616;2023-07-29T13:41:39;97852.38;;;45.10;21.49
41886;BME280;27567;43.084;25.616;2023-07-29T13:44:23;97843.22;;;45.61;21.46
41886;BME280;27567;43.084;25.616;2023-07-29T13:47:08;97854.75;;;45.54;20.92
41886;BME280;27567;43.084;25.616;2023-07-29T13:49:53;97850.56;;;46.23;21.18
41886;BME280;27567;43.084;25.616;2023-07-29T13:52:38;97839.50;;;45.77;20.90
41886;BME280;27567;43.084;25.616;2023-07-29T13:55:26;97846.41;;;43.79;22.28
41886;BME280;27567;43.084;25.616;2023-07-29T13:58:11;97838.94;;;45.96;20.81
41886;BME280;27567;43.084;25.616;2023-07-29T14:01:36;97849.75;;;45.45;21.08
41886;BME280;27567;43.084;25.616;2023-07-29T14:04:47;97837.41;;;46.78;20.83
41886;BME280;27567;43.084;25.616;2023-07-29T14:07:59;97840.00;;;49.08;18.64
41886;BME280;27567;43.084;25.616;2023-07-29T14:10:43;97842.03;;;48.61;19.23
41886;BME280;27567;43.084;25.616;2023-07-29T14:13:28;97837.31;;;48.86;18.89
41886;BME280;27567;43.084;25.616;2023-07-29T14:16:15;97828.50;;;47.96;18.91
41886;BME280;27567;43.084;25.616;2023-07-29T14:19:03;97827.44;;;49.33;18.43
41886;BME280;27567;43.084;25.616;2023-07-29T14:21:50;97829.38;;;48.25;19.14
41886;BME280;27567;43.084;25.616;2023-07-29T14:24:35;97832.50;;;49.48;18.49
41886;BME280;27567;43.084;25.616;2023-07-29T14:27:23;97830.81;;;48.67;18.69
41886;BME280;27567;43.084;25.616;2023-07-29T14:30:24;97816.25;;;49.30;18.24
41886;BME280;27567;43.084;25.616;2023-07-29T14:33:13;97824.53;;;50.53;18.00
41886;BME280;27567;43.084;25.616;2023-07-29T14:36:00;97823.03;;;49.32;18.45
41886;BME280;27567;43.084;25.616;2023-07-29T14:38:53;97823.78;;;47.62;19.48
41886;BME280;27567;43.084;25.616;2023-07-29T14:41:52;97821.75;;;46.51;19.49
41886;BME280;27567;43.084;25.616;2023-07-29T14:44:41;97814.66;;;48.08;18.74
41886;BME280;27567;43.084;25.616;2023-07-29T14:47:27;97816.94;;;49.58;18.04